Time;durP1;ratioP1;P1;durP2;ratioP2;P2;SDS_P1;SDS_P2;PMS_P1;PMS_P2;Temp;Humidity;BMP_temperature;BMP_pressure;BME280_temperature;BME280_humidity;BME280_pressure;Samples;Min_cycle;Max_cycle;Signal;HPM_P1;HPM_P2
2022/05/21 06:47:15;;;;;;;4.85;1.48;;;;;;;14.76;57.01;97187.31;2087980;27;20574;-62
2022/05/21 06:48:17;;;;;;;3.15;1.30;;;;;;;14.66;57.05;97171.16;2090470;28;20247;-61
2022/05/21 06:49:19;;;;;;;8.73;1.90;;;;;;;14.67;57.60;97165.81;2092675;28;20563;-62
2022/05/21 06:50:21;;;;;;;5.75;1.10;;;;;;;15.05;57.66;97196.25;2088677;28;20202;-62
2022/05/21 06:51:23;;;;;;;7.22;1.13;;;;;;;15.16;57.50;97193.03;2078106;28;20212;-62
2022/05/21 06:52:28;;;;;;;2.03;1.20;;;;;;;15.33;56.83;97194.75;2096067;28;20213;-73
2022/05/21 06:53:33;;;;;;;4.90;1.50;;;;;;;15.62;57.34;97195.75;2087114;28;20239;-63
2022/05/21 06:54:35;;;;;;;2.05;1.30;;;;;;;15.70;57.11;97197.13;2080510;28;20311;-63
2022/05/21 06:55:38;;;;;;;3.85;1.63;;;;;;;15.91;56.61;97197.69;2078825;28;20200;-63
2022/05/21 06:56:40;;;;;;;2.15;1.25;;;;;;;15.95;56.37;97194.81;2081285;28;20721;-63
2022/05/21 06:57:42;;;;;;;3.85;1.42;;;;;;;16.29;55.69;97181.44;2097655;28;20195;-63
2022/05/21 06:58:44;;;;;;;2.15;0.98;;;;;;;16.24;54.78;97184.34;2088964;28;20201;-63
2022/05/21 06:59:45;;;;;;;3.53;1.10;;;;;;;16.09;55.07;97191.38;2080441;28;20197;-63
2022/05/21 07:00:47;;;;;;;1.50;0.95;;;;;;;16.11;55.26;97188.63;2075162;28;20641;-63
2022/05/21 07:01:48;;;;;;;15.70;2.08;;;;;;;16.21;55.21;97199.50;2078547;28;20287;-63
2022/05/21 07:02:52;;;;;;;34.92;5.65;;;;;;;16.31;54.13;97206.75;2097033;28;20230;-63
2022/05/21 07:03:54;;;;;;;3.58;1.10;;;;;;;15.87;54.52;97197.03;2082071;28;20280;-63
2022/05/21 07:07:43;;;;;;;4.95;1.92;;;;;;;16.49;53.80;97196.06;2080087;28;20193;-63
2022/05/21 07:08:45;;;;;;;2.15;1.00;;;;;;;16.33;54.15;97196.16;2080279;28;20276;-63
2022/05/21 07:09:46;;;;;;;5.05;1.30;;;;;;;16.53;53.78;97200.22;2081525;28;20197;-63
2022/05/21 07:10:48;;;;;;;36.42;5.55;;;;;;;16.59;53.38;97204.28;2082034;28;20576;-63
2022/05/21 07:11:51;;;;;;;4.53;1.63;;;;;;;16.46;53.33;97199.72;2085906;28;20230;-63
2022/05/21 07:12:52;;;;;;;3.05;1.20;;;;;;;16.43;52.22;97194.66;2097694;28;20200;-63
2022/05/21 07:13:54;;;;;;;9.40;2.40;;;;;;;16.40;52.81;97192.19;2087234;28;20204;-63
2022/05/21 07:14:55;;;;;;;1.88;0.90;;;;;;;16.79;53.24;97197.78;2085270;28;20207;-64
2022/05/21 07:15:58;;;;;;;3.22;1.30;;;;;;;16.77;52.34;97194.41;2083270;28;20203;-64
2022/05/21 07:16:59;;;;;;;4.47;1.38;;;;;;;16.64;52.77;97195.13;2085429;28;20748;-63
2022/05/21 07:18:01;;;;;;;5.43;1.63;;;;;;;16.44;52.45;97196.34;2096997;28;20205;-63
2022/05/21 07:19:03;;;;;;;3.00;1.15;;;;;;;16.29;52.25;97184.06;2082651;28;20198;-63
2022/05/21 07:20:06;;;;;;;2.38;1.00;;;;;;;16.31;52.60;97183.03;2080555;28;20192;-63
2022/05/21 07:21:12;;;;;;;3.38;1.00;;;;;;;16.58;53.81;97189.38;2071030;28;20194;-63
2022/05/21 07:22:14;;;;;;;4.80;0.90;;;;;;;16.52;51.69;97189.75;2093420;28;20203;-63
2022/05/21 07:23:15;;;;;;;3.63;0.93;;;;;;;16.37;52.16;97191.53;2089496;28;20191;-63
2022/05/21 07:24:17;;;;;;;3.58;1.13;;;;;;;16.62;52.79;97199.66;2077879;28;20201;-63
2022/05/21 07:25:23;;;;;;;2.40;1.00;;;;;;;17.05;51.69;97190.97;2079976;28;20193;-63
2022/05/21 07:26:31;;;;;;;3.20;1.00;;;;;;;16.96;50.84;97183.59;2082497;28;20708;-63
2022/05/21 07:27:32;;;;;;;2.80;1.35;;;;;;;16.85;51.11;97180.72;2083350;28;20217;-63
2022/05/21 07:28:34;;;;;;;3.05;1.20;;;;;;;16.78;50.93;97177.63;2084724;28;20208;-63
2022/05/21 07:29:36;;;;;;;4.28;1.08;;;;;;;16.89;50.51;97172.56;2083095;28;20207;-63
2022/05/21 07:30:38;;;;;;;1.83;1.10;;;;;;;17.07;51.69;97175.03;2095010;28;20188;-63
2022/05/21 07:31:39;;;;;;;6.22;1.15;;;;;;;17.55;51.41;97174.66;2086946;28;20614;-63
2022/05/21 07:32:41;;;;;;;1.55;0.82;;;;;;;17.37;51.07;97150.25;2090755;28;20212;-63
2022/05/21 07:33:43;;;;;;;3.72;0.80;;;;;;;17.52;49.75;97174.81;2082451;28;20208;-63
2022/05/21 07:34:45;;;;;;;1.50;0.85;;;;;;;17.30;49.50;97163.00;2080190;28;20197;-63
2022/05/21 07:35:46;;;;;;;2.50;1.00;;;;;;;17.70;49.83;97167.50;2082790;28;20563;-63
2022/05/21 07:36:48;;;;;;;10.10;1.02;;;;;;;17.53;48.72;97172.09;2085367;28;20223;-63
2022/05/21 07:37:51;;;;;;;30.67;4.38;;;;;;;17.45;50.19;97172.56;2101184;28;20790;-64
2022/05/21 07:38:53;;;;;;;5.03;1.63;;;;;;;17.56;49.80;97171.91;2085210;28;20204;-63
2022/05/21 07:39:55;;;;;;;2.85;1.00;;;;;;;17.68;49.69;97180.81;2082367;28;20220;-63
2022/05/21 07:40:56;;;;;;;1.58;0.75;;;;;;;17.39;48.60;97174.78;2081769;28;20207;-63
2022/05/21 07:41:58;;;;;;;8.25;1.20;;;;;;;17.18;48.79;97184.88;2085392;28;20329;-63
2022/05/21 07:43:08;;;;;;;1.05;0.70;;;;;;;17.33;48.90;97183.06;2097525;28;20203;-63
2022/05/21 07:44:09;;;;;;;6.40;0.70;;;;;;;17.21;49.13;97185.53;2081416;28;20208;-66
2022/05/21 07:45:13;;;;;;;1.60;0.95;;;;;;;17.57;50.09;97185.94;2081730;28;20196;-61
2022/05/21 07:46:14;;;;;;;47.25;26.23;;;;;;;17.61;50.51;97195.34;2082990;28;20209;-63
2022/05/21 07:47:16;;;;;;;44.13;22.05;;;;;;;17.68;49.60;97194.00;2083833;28;20248;-63
2022/05/21 07:48:19;;;;;;;23.80;14.73;;;;;;;17.59;50.52;97194.63;2084709;28;20224;-62
2022/05/21 07:49:21;;;;;;;1.90;0.75;;;;;;;17.49;49.05;97188.25;2086202;28;20618;-63
2022/05/21 07:50:23;;;;;;;2.13;1.20;;;;;;;17.87;48.85;97198.13;2088542;28;20195;-71
2022/05/21 07:51:25;;;;;;;1.38;0.70;;;;;;;17.97;48.19;97196.59;2080711;28;20296;-71
2022/05/21 07:52:28;;;;;;;1.55;0.80;;;;;;;18.18;47.57;97183.75;2089033;28;20208;-71
2022/05/21 07:53:35;;;;;;;4.13;0.85;;;;;;;17.81;48.38;97199.34;2086187;28;20671;-71
2022/05/21 07:54:37;;;;;;;5.70;1.02;;;;;;;18.08;48.23;97187.94;2087183;28;20199;-71
2022/05/21 07:55:39;;;;;;;2.45;0.80;;;;;;;17.89;48.12;97175.06;2097528;28;20247;-71
2022/05/21 07:56:40;;;;;;;6.50;1.10;;;;;;;18.25;48.50;97170.97;2089200;28;20262;-71
2022/05/21 07:57:42;;;;;;;3.70;0.77;;;;;;;18.86;47.56;97191.50;2091337;28;20637;-72
2022/05/21 07:58:43;;;;;;;2.45;0.90;;;;;;;18.55;46.65;97189.19;2083715;28;20597;-63
2022/05/21 07:59:45;;;;;;;3.65;0.85;;;;;;;18.44;47.77;97176.69;2083565;28;20607;-64
2022/05/21 08:00:47;;;;;;;27.58;3.55;;;;;;;18.44;47.16;97181.97;2087059;28;20192;-62
2022/05/21 08:01:49;;;;;;;25.85;2.00;;;;;;;18.41;47.47;97178.69;2082267;28;20224;-62
2022/05/21 08:02:50;;;;;;;1.23;1.00;;;;;;;18.66;47.21;97191.06;2094935;28;20621;-62
2022/05/21 08:03:52;;;;;;;2.78;0.77;;;;;;;18.95;46.20;97177.66;2089354;28;20559;-62
2022/05/21 08:04:54;;;;;;;2.13;0.75;;;;;;;18.99;46.50;97187.06;2086192;28;20280;-62
2022/05/21 08:05:55;;;;;;;3.08;1.00;;;;;;;19.05;46.00;97183.16;2075364;28;20204;-62
2022/05/21 08:06:57;;;;;;;2.17;0.82;;;;;;;18.73;46.17;97195.00;2074018;28;20300;-62
2022/05/21 08:07:58;;;;;;;4.03;0.90;;;;;;;18.31;46.65;97182.91;2082341;28;20553;-62
2022/05/21 08:09:01;;;;;;;4.05;0.70;;;;;;;18.64;46.35;97181.56;2082385;28;20208;-62
2022/05/21 08:10:04;;;;;;;1.52;0.70;;;;;;;18.80;45.71;97189.28;2084459;28;20211;-62
2022/05/21 08:11:06;;;;;;;1.42;0.77;;;;;;;18.91;45.89;97187.59;2076952;28;20283;-62
2022/05/21 08:12:08;;;;;;;2.03;0.80;;;;;;;19.25;45.73;97187.88;2086440;28;20192;-62
2022/05/21 08:13:11;;;;;;;2.58;0.90;;;;;;;19.20;45.18;97152.13;2083356;28;20207;-62
2022/05/21 08:14:12;;;;;;;0.80;0.60;;;;;;;19.52;45.27;97176.25;2085696;28;20198;-69
2022/05/21 08:15:14;;;;;;;2.20;0.90;;;;;;;19.37;44.77;97162.31;2083588;28;20551;-70
2022/05/21 08:16:15;;;;;;;1.90;0.85;;;;;;;19.34;45.05;97189.03;2077493;28;20204;-70
2022/05/21 08:17:16;;;;;;;3.10;1.33;;;;;;;19.48;45.54;97184.56;2082170;28;20201;-70
2022/05/21 08:18:18;;;;;;;1.52;0.70;;;;;;;19.61;44.62;97182.69;2072929;28;20269;-69
2022/05/21 08:19:20;;;;;;;11.30;1.20;;;;;;;19.49;44.81;97178.28;2080924;28;20193;-69
2022/05/21 08:20:22;;;;;;;6.72;1.13;;;;;;;19.02;45.61;97184.22;2067685;28;20724;-70
2022/05/21 08:21:24;;;;;;;1.27;0.75;;;;;;;18.74;45.39;97182.59;2059102;28;20648;-68
2022/05/21 08:27:46;;;;;;;7.97;4.72;;;;;;;18.74;46.32;97180.81;2085320;28;20876;-68
2022/05/21 08:28:47;;;;;;;33.97;18.80;;;;;;;19.19;46.41;97177.72;2084075;28;20197;-68
2022/05/21 08:29:49;;;;;;;8.45;5.47;;;;;;;19.46;46.26;97173.22;2083633;28;20196;-69
2022/05/21 08:30:51;;;;;;;5.82;1.85;;;;;;;19.53;46.05;97177.94;2083279;28;20192;-69
2022/05/21 08:31:52;;;;;;;1.25;0.70;;;;;;;19.62;45.23;97178.22;2074828;28;20220;-70
2022/05/21 08:33:00;;;;;;;3.15;0.85;;;;;;;19.58;45.46;97174.97;2081879;28;20663;-69
2022/05/21 08:34:02;;;;;;;0.95;0.75;;;;;;;19.44;45.44;97168.03;2088939;28;20725;-69
2022/05/21 08:35:04;;;;;;;1.42;0.70;;;;;;;19.36;45.38;97173.03;2092204;28;20291;-69
2022/05/21 08:36:06;;;;;;;2.45;1.00;;;;;;;19.36;45.40;97165.06;2076162;28;20557;-68
2022/05/21 08:37:07;;;;;;;10.52;1.95;;;;;;;19.77;44.63;97170.97;2081209;28;20648;-69
2022/05/21 08:38:10;;;;;;;1.60;0.73;;;;;;;19.75;43.52;97171.91;2084113;28;20197;-69
2022/05/21 08:39:12;;;;;;;2.95;0.80;;;;;;;19.61;44.32;97174.72;2079820;28;20197;-70
2022/05/21 08:40:15;;;;;;;3.25;0.80;;;;;;;19.51;45.11;97166.59;2083255;28;20192;-70
2022/05/21 08:41:26;;;;;;;5.07;0.85;;;;;;;19.93;43.91;97184.78;2075707;28;20205;-69
2022/05/21 08:42:35;;;;;;;3.63;0.70;;;;;;;19.91;44.47;97165.53;2093137;28;20663;-69
2022/05/21 08:43:55;;;;;;;5.03;1.10;;;;;;;19.77;44.39;97185.06;2086472;28;20652;-69
2022/05/21 08:45:11;;;;;;;2.17;1.00;;;;;;;20.15;44.53;97180.53;2085446;28;20209;-69
2022/05/21 08:46:42;;;;;;;3.17;0.68;;;;;;;19.81;44.34;97188.34;2081064;28;20647;-69
2022/05/21 08:47:47;;;;;;;2.97;0.60;;;;;;;19.77;44.67;97181.56;2084131;28;20237;-69
2022/05/21 08:49:04;;;;;;;3.17;0.77;;;;;;;19.69;45.27;97176.81;2080237;28;20197;-69
2022/05/21 08:50:12;;;;;;;2.03;0.98;;;;;;;20.03;45.22;97171.72;2077164;28;20201;-70
2022/05/21 08:51:19;;;;;;;2.15;1.00;;;;;;;20.20;45.20;97176.59;2082244;28;20196;-69
2022/05/21 08:52:32;;;;;;;3.22;0.88;;;;;;;20.60;45.01;97185.97;2088354;28;20204;-69
2022/05/21 08:53:49;;;;;;;1.63;1.10;;;;;;;20.60;43.92;97188.63;2082193;28;20192;-69
2022/05/21 08:54:59;;;;;;;3.15;1.00;;;;;;;20.05;45.47;97173.28;2077678;28;20210;-68
2022/05/21 08:56:02;;;;;;;3.70;1.00;;;;;;;20.47;44.91;97169.31;2082601;28;20200;-69
2022/05/21 08:57:05;;;;;;;4.40;0.80;;;;;;;20.28;45.43;97172.50;2079375;28;20734;-68
2022/05/21 08:58:16;;;;;;;3.67;0.80;;;;;;;20.35;45.57;97176.38;2088161;28;20842;-69
2022/05/21 08:59:21;;;;;;;5.68;0.90;;;;;;;20.58;45.16;97177.28;2081278;28;20197;-68
2022/05/21 09:00:44;;;;;;;9.98;0.95;;;;;;;20.75;44.04;97167.19;2080830;28;20201;-68
2022/05/21 09:01:47;;;;;;;12.02;2.10;;;;;;;20.51;44.02;97171.59;2080741;28;20255;-69
2022/05/21 09:02:50;;;;;;;4.00;0.90;;;;;;;20.47;44.42;97172.81;2091231;28;20207;-69
2022/05/21 09:03:54;;;;;;;2.75;0.80;;;;;;;19.99;43.12;97171.09;2084200;28;20197;-69
2022/05/21 09:04:56;;;;;;;1.65;0.70;;;;;;;19.67;44.88;97176.94;2083242;28;20205;-69
2022/05/21 09:06:19;;;;;;;1.65;0.60;;;;;;;19.89;45.65;97176.22;2085148;28;20193;-70
2022/05/21 09:07:25;;;;;;;1.50;0.70;;;;;;;20.20;44.93;97165.13;2085067;28;20315;-69
2022/05/21 09:08:35;;;;;;;2.25;0.98;;;;;;;20.50;44.72;97166.41;2084556;28;20223;-70
2022/05/21 09:09:56;;;;;;;2.67;0.80;;;;;;;20.58;44.40;97165.81;2083316;28;20567;-69
2022/05/21 09:11:04;;;;;;;12.18;1.80;;;;;;;20.52;44.74;97169.81;2083700;28;20207;-69
2022/05/21 09:12:05;;;;;;;2.35;0.80;;;;;;;20.62;44.41;97157.53;2063830;28;20209;-69
2022/05/21 09:13:19;;;;;;;1.45;0.73;;;;;;;20.72;44.83;97165.63;2058487;28;20254;-69
2022/05/21 09:14:36;;;;;;;3.15;1.10;;;;;;;20.81;43.67;97167.56;2060617;28;20195;-69
2022/05/21 09:17:00;;;;;;;1.30;0.90;;;;;;;20.61;44.00;97162.91;2072245;28;20264;-69
2022/05/21 09:18:02;;;;;;;1.70;0.85;;;;;;;20.71;43.47;97158.66;2084872;28;20193;-69
2022/05/21 09:19:10;;;;;;;1.17;0.88;;;;;;;20.80;43.09;97160.56;2079692;28;20193;-69
2022/05/21 09:20:19;;;;;;;2.85;0.80;;;;;;;20.56;42.89;97166.78;2073487;28;20224;-68
2022/05/21 09:21:24;;;;;;;1.00;0.73;;;;;;;20.54;43.24;97162.56;2069247;28;20205;-69
2022/05/21 09:22:26;;;;;;;1.88;0.88;;;;;;;20.89;43.57;97161.66;2094069;28;20195;-68
2022/05/21 09:23:52;;;;;;;1.30;0.70;;;;;;;21.51;42.93;97167.41;2082232;28;20205;-68
2022/05/21 09:24:58;;;;;;;3.47;0.90;;;;;;;21.58;42.12;97163.28;2075447;28;20208;-68
2022/05/21 09:26:08;;;;;;;5.30;0.90;;;;;;;21.40;42.11;97144.34;2076362;28;20201;-68
2022/05/21 09:27:54;;;;;;;2.63;0.65;;;;;;;21.43;42.41;97159.19;2075399;28;20213;-68
2022/05/21 09:29:21;;;;;;;6.97;0.88;;;;;;;21.76;42.23;97157.44;2071550;28;20208;-68
2022/05/21 09:30:26;;;;;;;1.83;0.90;;;;;;;21.79;42.23;97157.22;2078611;28;20199;-68
2022/05/21 09:31:30;;;;;;;1.20;0.80;;;;;;;21.53;42.24;97155.69;2064330;28;20231;-68
2022/05/21 09:32:33;;;;;;;3.38;0.73;;;;;;;21.36;42.05;97146.41;2083106;28;20196;-68
2022/05/21 09:33:36;;;;;;;3.47;0.60;;;;;;;21.37;42.80;97149.91;2081030;28;20194;-68
2022/05/21 09:34:38;;;;;;;2.30;0.80;;;;;;;21.49;41.71;97140.09;2076165;28;20206;-69
2022/05/21 09:36:13;;;;;;;1.65;0.70;;;;;;;21.63;42.51;97145.16;2075763;28;20564;-71
2022/05/21 09:37:19;;;;;;;1.20;0.75;;;;;;;21.27;42.05;97152.47;2069106;28;20248;-72
2022/05/21 09:38:24;;;;;;;10.57;1.42;;;;;;;21.18;42.95;97139.94;2071261;28;20201;-71
2022/05/21 09:39:30;;;;;;;2.78;0.85;;;;;;;21.14;41.92;97143.78;2072807;28;20205;-71
2022/05/21 09:40:35;;;;;;;6.22;3.13;;;;;;;20.93;42.69;97127.78;2073624;28;20202;-69
2022/05/21 09:41:37;;;;;;;20.50;3.25;;;;;;;21.38;42.46;97146.28;2071605;28;20228;-70
2022/05/21 09:45:32;;;;;;;6.22;0.95;;;;;;;21.85;42.04;97148.69;2073836;28;20205;-71
2022/05/21 09:46:33;;;;;;;4.72;0.82;;;;;;;22.14;40.62;97134.81;2075859;28;20811;-70
2022/05/21 09:47:35;;;;;;;2.20;0.80;;;;;;;22.11;40.29;97141.22;2076137;28;20878;-70
2022/05/21 09:48:37;;;;;;;2.45;0.80;;;;;;;21.95;40.33;97139.03;2082451;28;20216;-71
2022/05/21 09:49:39;;;;;;;2.03;0.70;;;;;;;21.77;40.90;97135.22;2083244;28;20215;-70
2022/05/21 09:50:49;;;;;;;1.65;0.60;;;;;;;21.71;41.61;97141.03;2084246;28;20253;-71
2022/05/21 09:52:09;;;;;;;2.80;0.82;;;;;;;21.79;41.05;97131.47;2078777;28;20220;-71
2022/05/21 09:53:28;;;;;;;4.78;1.20;;;;;;;22.20;41.36;97144.94;2086700;28;20192;-70
2022/05/21 09:54:34;;;;;;;5.15;0.90;;;;;;;22.09;40.51;97143.16;2095073;28;20207;-71
2022/05/21 09:55:36;;;;;;;3.38;1.00;;;;;;;22.17;40.65;97140.72;2093400;28;20242;-71
2022/05/21 09:56:48;;;;;;;3.10;0.82;;;;;;;22.23;40.80;97143.81;2077592;28;20676;-71
2022/05/21 09:57:51;;;;;;;2.42;0.80;;;;;;;22.29;40.68;97133.50;2092983;28;20211;-71
2022/05/21 09:59:18;;;;;;;1.45;0.70;;;;;;;22.57;40.40;97149.81;2077256;28;20194;-71
2022/05/21 10:00:29;;;;;;;1.08;0.70;;;;;;;22.26;41.24;97149.72;2074780;28;20201;-70
2022/05/21 10:01:45;;;;;;;1.75;0.80;;;;;;;22.47;40.56;97149.78;2072864;28;20224;-71
2022/05/21 10:02:51;;;;;;;3.20;0.95;;;;;;;22.58;40.64;97148.84;2092641;28;20199;-71
2022/05/21 10:03:54;;;;;;;2.03;0.90;;;;;;;22.39;41.02;97140.75;2076503;28;20201;-71
2022/05/21 10:04:58;;;;;;;13.05;1.27;;;;;;;22.48;41.30;97142.63;2073337;28;20660;-71
2022/05/21 10:06:04;;;;;;;3.90;1.23;;;;;;;22.48;40.26;97143.44;2071892;28;20209;-71
2022/05/21 10:10:58;;;;;;;1.38;0.73;;;;;;;22.19;40.11;97145.88;2064942;28;20681;-71
2022/05/21 10:12:24;;;;;;;2.88;0.90;;;;;;;22.59;40.27;97145.19;2081515;28;20265;-71
2022/05/21 10:13:31;;;;;;;4.25;0.90;;;;;;;22.54;40.46;97139.44;2086692;28;20613;-71
2022/05/21 10:14:47;;;;;;;3.28;0.77;;;;;;;22.64;40.40;97131.50;2075717;28;20804;-71
2022/05/21 10:15:55;;;;;;;3.45;1.02;;;;;;;22.64;39.42;97126.19;2070531;28;20224;-71
2022/05/21 10:17:04;;;;;;;3.58;0.80;;;;;;;22.80;39.64;97137.19;2079559;28;20224;-71
2022/05/21 10:18:48;;;;;;;1.83;0.90;;;;;;;22.81;39.55;97135.38;2091686;28;20195;-71
2022/05/21 10:19:57;;;;;;;4.20;0.65;;;;;;;22.67;39.43;97131.22;2064418;28;20616;-71
2022/05/21 10:21:12;;;;;;;3.38;0.98;;;;;;;22.53;40.21;97119.13;2069264;28;20205;-71
2022/05/21 10:22:36;;;;;;;5.65;1.38;;;;;;;22.89;38.47;97127.53;2075666;28;20759;-71
2022/05/21 10:23:46;;;;;;;2.33;0.80;;;;;;;23.13;39.29;97126.38;2081901;28;20702;-71
2022/05/21 10:24:56;;;;;;;4.00;1.17;;;;;;;22.88;39.33;97128.53;2083745;28;20204;-71
2022/05/21 10:26:25;;;;;;;5.80;0.80;;;;;;;22.98;38.65;97129.41;2084714;28;20470;-72
2022/05/21 10:27:54;;;;;;;3.20;0.85;;;;;;;23.33;39.01;97126.47;2075873;28;20581;-71
2022/05/21 10:29:40;;;;;;;3.92;1.17;;;;;;;22.97;39.47;97127.72;2086842;28;20287;-71
2022/05/21 10:31:03;;;;;;;2.53;0.88;;;;;;;22.89;38.98;97127.53;2060782;28;20205;-71
2022/05/21 10:32:26;;;;;;;4.95;0.88;;;;;;;22.79;39.36;97119.53;2067511;28;20229;-71
2022/05/21 10:33:51;;;;;;;5.00;1.17;;;;;;;22.63;40.09;97117.34;2075725;28;20193;-71
2022/05/21 10:35:01;;;;;;;2.65;0.90;;;;;;;22.69;40.12;97120.44;2070100;28;20234;-71
2022/05/21 10:36:21;;;;;;;1.65;0.70;;;;;;;23.30;39.30;97117.75;2075031;28;20243;-71
2022/05/21 10:38:01;;;;;;;5.80;0.80;;;;;;;23.36;38.99;97120.84;2074689;28;20213;-65
2022/05/21 10:39:33;;;;;;;3.25;0.88;;;;;;;23.92;38.39;97119.38;2077233;28;20193;-64
2022/05/21 10:40:36;;;;;;;2.05;0.75;;;;;;;23.90;38.06;97108.00;2074484;28;20202;-64
2022/05/21 10:41:50;;;;;;;1.50;0.80;;;;;;;23.34;38.59;97096.16;2070045;28;20231;-65
2022/05/21 10:43:18;;;;;;;2.50;1.05;;;;;;;23.52;37.63;97113.16;2089417;28;20191;-64
2022/05/21 10:44:55;;;;;;;4.15;0.90;;;;;;;23.28;36.75;97108.22;2072517;28;20763;-64
2022/05/21 10:46:19;;;;;;;8.13;1.23;;;;;;;24.06;36.79;97115.44;2059244;28;20547;-64
2022/05/21 10:47:53;;;;;;;1.33;0.90;;;;;;;23.69;36.58;97119.63;2083144;28;20227;-64
2022/05/21 10:49:24;;;;;;;11.18;7.18;;;;;;;23.19;36.29;97122.38;2046142;29;20219;-63
2022/05/21 10:50:55;;;;;;;15.30;6.20;;;;;;;23.43;37.15;97111.34;2070024;28;20206;-63
2022/05/21 10:51:56;;;;;;;3.90;1.30;;;;;;;23.37;37.50;97106.56;2068633;28;20220;-61
2022/05/21 10:53:01;;;;;;;3.15;1.02;;;;;;;23.60;37.68;97109.78;2079440;28;20197;-71
2022/05/21 10:54:24;;;;;;;5.65;1.00;;;;;;;23.50;37.08;97107.13;2068251;28;20208;-72
2022/05/21 10:55:34;;;;;;;3.67;0.98;;;;;;;23.43;36.07;97104.16;2066128;28;20202;-72
2022/05/21 10:56:53;;;;;;;1.00;0.80;;;;;;;23.47;37.13;97102.91;2066615;28;20232;-71
2022/05/21 10:57:57;;;;;;;2.00;0.90;;;;;;;23.92;36.45;97104.25;2082079;28;20245;-71
2022/05/21 10:59:10;;;;;;;1.73;0.90;;;;;;;23.76;36.97;97102.09;2067851;28;20228;-71
2022/05/21 11:00:25;;;;;;;3.85;0.85;;;;;;;24.02;36.41;97098.03;2066199;28;20787;-71
2022/05/21 11:01:53;;;;;;;3.53;1.10;;;;;;;24.03;36.81;97095.22;2059900;28;21998;-71
2022/05/21 11:03:09;;;;;;;4.80;1.23;;;;;;;24.01;37.40;97099.03;2070541;28;20812;-71
2022/05/21 11:04:18;;;;;;;7.05;1.00;;;;;;;24.12;36.52;97096.19;2065488;28;20200;-64
2022/05/21 11:05:32;;;;;;;1.10;0.73;;;;;;;23.99;36.42;97098.34;2065997;28;20217;-64
2022/05/21 11:06:56;;;;;;;1.13;0.63;;;;;;;24.33;35.46;97097.84;2062954;28;20237;-64
2022/05/21 11:08:29;;;;;;;1.63;0.85;;;;;;;24.71;34.58;97102.25;2066161;28;20578;-64
2022/05/21 11:09:33;;;;;;;2.95;0.70;;;;;;;24.57;35.83;97092.88;2064807;28;20194;-64
2022/05/21 11:10:45;;;;;;;1.10;0.88;;;;;;;24.26;34.58;97084.25;2065153;28;20203;-64
2022/05/21 11:12:01;;;;;;;2.88;0.68;;;;;;;24.34;35.65;97094.19;2067874;28;20244;-64
2022/05/21 11:13:16;;;;;;;20.65;2.65;;;;;;;24.80;35.28;97091.69;2079575;28;20193;-63
2022/05/21 11:14:33;;;;;;;3.30;1.35;;;;;;;24.58;35.19;97099.91;2065430;28;20256;-64
2022/05/21 11:15:53;;;;;;;7.38;0.90;;;;;;;24.71;35.36;97101.41;2066201;28;20198;-64
2022/05/21 11:17:00;;;;;;;3.90;0.80;;;;;;;24.80;35.39;97103.22;2070188;28;20223;-64
2022/05/21 11:18:25;;;;;;;3.10;0.90;;;;;;;24.82;34.27;97095.88;2081337;28;20848;-64
2022/05/21 11:20:11;;;;;;;2.28;0.90;;;;;;;25.03;34.85;97095.66;2060225;28;20311;-64
2022/05/21 11:21:52;;;;;;;1.73;0.80;;;;;;;25.31;34.00;97100.97;2040325;28;20210;-64
2022/05/21 11:23:09;;;;;;;24.15;14.75;;;;;;;25.27;34.31;97102.28;2045551;29;20200;-64
2022/05/21 11:24:17;;;;;;;5.57;2.00;;;;;;;25.12;34.12;97103.78;2052399;28;20725;-64
2022/05/21 11:25:27;;;;;;;2.10;1.35;;;;;;;25.28;33.66;97098.63;2042496;29;20215;-64
2022/05/21 11:26:46;;;;;;;1.73;0.90;;;;;;;24.79;32.77;97098.88;2044744;29;20727;-64
2022/05/21 11:28:14;;;;;;;4.18;1.10;;;;;;;24.54;33.58;97092.31;2043218;29;20207;-64
2022/05/21 11:29:30;;;;;;;3.60;0.80;;;;;;;24.38;34.05;97090.25;2037603;29;20581;-63
2022/05/21 11:30:32;;;;;;;1.67;0.80;;;;;;;24.81;33.84;97099.56;2044556;28;20230;-64
2022/05/21 11:37:20;;;;;;;3.63;1.17;;;;;;;24.75;34.61;97079.63;2041120;28;20203;-64
2022/05/21 11:37:45;;;;;;;2.25;0.73;;;;;;;25.76;33.97;97099.28;2049162;28;20267;-64
2022/05/21 11:38:51;;;;;;;12.57;1.98;;;;;;;25.53;33.05;97098.91;2051550;28;20262;-63
2022/05/21 11:39:55;;;;;;;4.93;1.13;;;;;;;25.67;32.46;97095.69;2050811;28;20235;-64
2022/05/21 11:42:22;;;;;;;4.18;1.65;;;;;;;24.90;34.03;97093.34;2047433;28;20223;-62
2022/05/21 11:44:55;;;;;;;2.30;0.95;;;;;;;25.36;34.06;97098.72;2052005;28;20202;-62
2022/05/21 11:45:24;;;;;;;4.82;0.95;;;;;;;24.73;34.79;97091.44;2052321;28;20203;-62
2022/05/21 11:46:37;;;;;;;4.05;1.08;;;;;;;24.97;34.03;97085.56;2053268;28;20251;-62
2022/05/21 11:47:46;;;;;;;2.80;1.15;;;;;;;24.61;35.00;97088.91;2051179;28;20246;-64
2022/05/21 11:48:47;;;;;;;5.72;0.98;;;;;;;24.96;35.16;97102.56;2052170;28;20207;-64
2022/05/21 11:49:53;;;;;;;2.70;1.00;;;;;;;24.66;34.90;97088.53;2053198;28;20729;-64
2022/05/21 11:51:22;;;;;;;12.25;1.88;;;;;;;25.15;34.59;97098.94;2052283;28;20199;-64
2022/05/21 11:52:26;;;;;;;5.40;0.95;;;;;;;24.98;33.88;97092.59;2050863;28;20227;-64
2022/05/21 11:53:39;;;;;;;3.00;0.80;;;;;;;25.06;33.87;97089.16;2051059;28;20207;-63
2022/05/21 11:54:47;;;;;;;3.13;1.10;;;;;;;25.24;33.83;97098.06;2049441;28;20868;-64
2022/05/21 11:56:04;;;;;;;1.40;1.00;;;;;;;25.29;33.89;97091.44;2053717;28;20203;-64
2022/05/21 11:57:06;;;;;;;2.75;0.95;;;;;;;25.75;33.15;97101.13;2070956;28;20280;-64
2022/05/21 11:58:09;;;;;;;9.80;1.10;;;;;;;24.79;34.15;97082.84;2074177;28;20215;-64
2022/05/21 11:59:15;;;;;;;5.20;1.35;;;;;;;25.45;33.90;97094.31;2078497;28;20236;-64
2022/05/21 12:00:19;;;;;;;2.97;0.82;;;;;;;25.27;33.88;97086.25;2067687;28;20206;-64
2022/05/21 12:01:41;;;;;;;5.43;1.10;;;;;;;25.43;34.01;97089.13;2057012;28;20203;-64
2022/05/21 12:02:55;;;;;;;1.45;0.90;;;;;;;25.63;33.31;97094.31;2090966;28;20245;-64
2022/05/21 12:03:57;;;;;;;3.00;1.13;;;;;;;24.95;34.13;97071.53;2076101;28;20194;-64
2022/05/21 12:05:08;;;;;;;17.55;1.10;;;;;;;24.86;33.85;97078.59;2077969;28;20204;-64
2022/05/21 12:06:28;;;;;;;3.85;1.38;;;;;;;25.65;32.98;97091.50;2076360;28;20263;-64
2022/05/21 12:07:46;;;;;;;2.95;0.90;;;;;;;26.41;32.33;97095.50;2076524;28;20247;-64
2022/05/21 12:08:49;;;;;;;9.15;1.35;;;;;;;26.44;31.78;97087.13;2072949;28;20731;-64
2022/05/21 12:10:01;;;;;;;3.67;1.25;;;;;;;26.10;31.98;97089.75;2074441;28;20687;-62
2022/05/21 12:11:04;;;;;;;1.25;1.00;;;;;;;26.27;31.36;97091.56;2073465;28;20585;-62
2022/05/21 12:12:22;;;;;;;1.92;1.23;;;;;;;26.12;31.14;97090.41;2066220;28;20752;-62
2022/05/21 12:13:33;;;;;;;2.55;1.35;;;;;;;26.13;31.64;97087.59;2075380;28;20204;-62
2022/05/21 12:14:50;;;;;;;22.30;2.60;;;;;;;26.43;31.40;97087.28;2073282;28;20189;-64
2022/05/21 12:15:53;;;;;;;2.88;0.95;;;;;;;25.99;31.88;97085.44;2074838;28;20194;-64
2022/05/21 12:16:58;;;;;;;4.65;0.88;;;;;;;26.13;32.18;97081.38;2069536;28;20225;-64
2022/05/21 12:18:03;;;;;;;2.08;1.10;;;;;;;26.12;31.95;97080.56;2081749;28;20200;-64
2022/05/21 12:19:07;;;;;;;7.22;1.20;;;;;;;26.44;31.45;97084.44;2062736;28;20264;-63
2022/05/21 12:20:11;;;;;;;2.20;1.55;;;;;;;26.14;31.60;97080.41;2083773;28;20201;-64
2022/05/21 12:21:29;;;;;;;4.82;1.38;;;;;;;26.12;31.90;97088.59;2065959;28;20582;-64
2022/05/21 12:22:42;;;;;;;2.65;2.40;;;;;;;26.46;31.50;97092.31;2069420;28;20201;-65
2022/05/21 12:23:47;;;;;;;54.15;33.67;;;;;;;26.24;31.53;97087.34;2072258;28;20193;-64
2022/05/21 12:24:48;;;;;;;5.25;2.70;;;;;;;26.18;31.30;97079.09;2063568;28;20205;-63
2022/05/21 12:25:57;;;;;;;3.55;1.45;;;;;;;26.28;31.21;97084.34;2066091;28;20205;-63
2022/05/21 12:27:02;;;;;;;3.65;1.13;;;;;;;26.30;31.41;97075.16;2065636;28;20699;-64
2022/05/21 12:28:04;;;;;;;2.47;1.05;;;;;;;26.30;31.79;97077.00;2067274;28;20198;-63
2022/05/21 12:29:06;;;;;;;3.90;1.00;;;;;;;26.23;31.77;97083.00;2070031;28;20206;-64
2022/05/21 12:30:21;;;;;;;4.00;0.95;;;;;;;25.58;32.36;97073.41;2070091;28;20213;-63
2022/05/21 12:31:24;;;;;;;4.22;0.95;;;;;;;25.95;31.95;97079.56;2061412;28;20811;-64
2022/05/21 12:32:27;;;;;;;3.53;1.15;;;;;;;26.02;31.95;97079.78;2085124;28;20604;-63
2022/05/21 12:33:38;;;;;;;4.63;1.23;;;;;;;26.37;31.18;97072.69;2080512;28;20202;-64